Time;durP1;ratioP1;P1;durP2;ratioP2;P2;SDS_P1;SDS_P2;PMS_P1;PMS_P2;Temp;Humidity;BMP_temperature;BMP_pressure;BME280_temperature;BME280_humidity;BME280_pressure;Samples;Min_cycle;Max_cycle;Signal;HPM_P1;HPM_P2
2022/02/02 00:04:57;;;;;;;3.47;1.88;;;2.90;99.90;;;;;;5075173;28;20044;-74
2022/02/02 00:10:05;;;;;;;2.42;1.80;;;2.90;99.90;;;;;;5093072;28;20050;-74
2022/02/02 00:12:43;;;;;;;3.45;1.88;;;3.00;99.90;;;;;;5075330;28;20038;-74
2022/02/02 00:18:09;;;;;;;2.72;1.73;;;3.00;99.90;;;;;;5093205;28;20047;-74
2022/02/02 00:20:58;;;;;;;1.98;1.65;;;3.10;99.90;;;;;;5091597;28;20048;-73
2022/02/02 00:23:37;;;;;;;2.95;1.63;;;3.10;99.90;;;;;;5058605;28;20067;-74
2022/02/02 00:26:14;;;;;;;2.53;1.80;;;3.00;99.90;;;;;;5091636;28;20051;-74
2022/02/02 00:28:51;;;;;;;1.90;1.70;;;3.00;99.90;;;;;;5090953;28;20044;-73
2022/02/02 00:31:29;;;;;;;1.80;1.52;;;3.00;99.90;;;;;;5073751;28;20044;-74
2022/02/02 00:34:05;;;;;;;2.45;1.58;;;3.00;99.90;;;;;;5089165;28;20048;-74
2022/02/02 00:36:46;;;;;;;1.95;1.75;;;3.00;99.90;;;;;;5074571;28;20054;-74
2022/02/02 00:39:18;;;;;;;1.48;1.38;;;2.90;99.90;;;;;;5075492;28;20491;-73
2022/02/02 00:41:45;;;;;;;1.65;1.50;;;3.00;99.90;;;;;;5092668;28;20044;-73
2022/02/02 00:44:18;;;;;;;1.98;1.67;;;3.00;99.90;;;;;;5092061;28;20044;-73
2022/02/02 00:46:47;;;;;;;1.52;1.30;;;3.00;99.90;;;;;;5091047;28;20648;-74
2022/02/02 00:49:14;;;;;;;1.58;1.30;;;2.90;99.90;;;;;;5092213;28;20115;-74
2022/02/02 00:51:48;;;;;;;1.73;1.33;;;3.00;99.90;;;;;;5074334;28;20044;-75
2022/02/02 00:54:25;;;;;;;1.77;1.58;;;2.90;99.90;;;;;;5090927;28;20036;-73
2022/02/02 00:57:03;;;;;;;2.03;1.63;;;2.90;99.90;;;;;;5076154;28;20052;-73
2022/02/02 00:59:35;;;;;;;2.40;1.85;;;2.90;99.90;;;;;;5092280;28;20036;-73
2022/02/02 01:02:08;;;;;;;2.08;1.85;;;2.80;99.90;;;;;;5074155;28;20098;-73
2022/02/02 01:04:40;;;;;;;2.60;2.00;;;2.80;99.90;;;;;;5073612;28;20466;-74
2022/02/02 01:10:28;;;;;;;2.25;1.83;;;2.70;99.90;;;;;;5075953;28;20044;-73
2022/02/02 01:18:58;;;;;;;2.30;2.08;;;2.80;99.90;;;;;;5091772;28;20063;-73
2022/02/02 01:21:42;;;;;;;3.30;1.80;;;2.80;99.90;;;;;;5091780;28;20488;-74
2022/02/02 01:29:53;;;;;;;2.80;2.20;;;2.80;99.90;;;;;;5091764;28;20064;-74
2022/02/02 01:32:26;;;;;;;2.58;2.10;;;2.80;99.90;;;;;;5073175;28;20094;-74
2022/02/02 01:34:54;;;;;;;2.25;2.00;;;2.80;99.90;;;;;;5073704;28;20040;-74
2022/02/02 01:37:29;;;;;;;2.85;2.10;;;2.80;99.90;;;;;;5057529;28;20052;-73
2022/02/02 01:40:03;;;;;;;2.50;2.17;;;2.90;99.90;;;;;;5091415;28;20052;-73
2022/02/02 01:42:38;;;;;;;3.20;2.13;;;2.90;99.90;;;;;;5072922;28;20059;-74
2022/02/02 01:45:36;;;;;;;2.72;2.10;;;2.90;99.90;;;;;;5091263;28;20134;-73
2022/02/02 01:51:10;;;;;;;4.00;2.35;;;2.90;99.90;;;;;;5073180;28;20044;-74
2022/02/02 01:56:13;;;;;;;4.05;2.55;;;3.00;99.90;;;;;;5072775;28;20123;-74
2022/02/02 02:01:36;;;;;;;3.83;2.30;;;3.10;99.90;;;;;;5089458;28;20048;-74
2022/02/02 02:04:08;;;;;;;3.78;2.58;;;3.10;99.90;;;;;;5089138;28;20044;-73
2022/02/02 02:06:39;;;;;;;3.33;2.63;;;3.10;99.90;;;;;;5090071;28;20122;-74
2022/02/02 02:09:07;;;;;;;2.95;2.60;;;3.10;99.90;;;;;;5090647;28;20514;-74
2022/02/02 02:11:55;;;;;;;4.05;2.22;;;3.20;99.90;;;;;;5072352;28;20032;-73
2022/02/02 02:16:55;;;;;;;3.05;2.22;;;3.30;99.90;;;;;;5072304;28;20591;-74
2022/02/02 02:19:24;;;;;;;5.05;2.42;;;3.30;99.90;;;;;;5090829;28;20044;-74
2022/02/02 02:21:52;;;;;;;4.50;2.60;;;3.30;99.90;;;;;;5072475;28;20094;-74
2022/02/02 02:24:20;;;;;;;2.97;2.17;;;3.40;99.90;;;;;;5090703;28;20506;-74
2022/02/02 02:26:56;;;;;;;7.38;2.17;;;3.50;99.90;;;;;;5090811;28;20522;-74
2022/02/02 02:29:53;;;;;;;2.35;1.80;;;3.40;99.90;;;;;;5091066;28;20058;-73
2022/02/02 02:57:36;;;;;;;3.75;2.42;;;3.30;99.90;;;;;;5092452;28;20048;-74
2022/02/02 03:51:38;;;;;;;1.80;0.98;;;3.30;99.90;;;;;;5093491;28;20043;-74
2022/02/02 03:54:26;;;;;;;;;;;3.20;99.90;;;;;;5093249;28;20036;-75
2022/02/02 04:08:15;;;;;;;3.40;2.10;;;3.20;99.90;;;;;;5074922;28;20143;-73
2022/02/02 04:10:43;;;;;;;4.80;1.55;;;3.20;99.90;;;;;;5091597;28;20143;-74
2022/02/02 04:14:24;;;;;;;6.82;2.10;;;3.30;99.90;;;;;;5058605;28;20050;-74
2022/02/02 05:03:58;;;;;;;6.68;3.33;;;3.70;99.90;;;;;;5091017;28;20040;-74
2022/02/02 05:06:33;;;;;;;7.28;3.10;;;3.80;99.90;;;;;;5074659;28;20046;-74
2022/02/02 05:53:30;;;;;;;15.93;3.75;;;4.30;99.90;;;;;;5070192;28;20402;-74
2022/02/02 05:56:07;;;;;;;9.23;3.70;;;4.30;99.90;;;;;;5089381;28;20101;-73
2022/02/02 05:58:43;;;;;;;9.45;4.22;;;4.40;99.90;;;;;;5069524;28;20055;-74
2022/02/02 06:01:16;;;;;;;11.27;3.55;;;4.40;99.90;;;;;;5063063;28;20413;-74
2022/02/02 06:04:00;;;;;;;12.15;3.25;;;4.40;99.90;;;;;;5074451;28;20048;-74
2022/02/02 06:06:28;;;;;;;7.88;3.10;;;4.50;99.90;;;;;;5091077;28;20445;-74
2022/02/02 06:09:03;;;;;;;10.98;3.10;;;4.60;99.90;;;;;;5090899;28;20388;-74
2022/02/02 06:11:37;;;;;;;14.85;3.72;;;4.60;99.90;;;;;;5090670;28;20059;-74
2022/02/02 06:14:18;;;;;;;13.07;3.33;;;4.60;99.90;;;;;;5056746;28;20044;-74
2022/02/02 06:16:53;;;;;;;8.43;2.88;;;4.60;99.90;;;;;;5073428;28;20086;-73
2022/02/02 06:19:25;;;;;;;15.35;3.33;;;4.60;99.90;;;;;;5055601;28;20117;-73
2022/02/02 06:22:17;;;;;;;8.75;3.40;;;4.60;99.90;;;;;;5089757;28;20055;-74
2022/02/02 06:24:58;;;;;;;10.88;3.05;;;4.70;99.90;;;;;;5090303;28;20068;-73
2022/02/02 06:27:34;;;;;;;11.88;3.13;;;4.70;99.90;;;;;;5090370;28;20048;-73
2022/02/02 06:30:10;;;;;;;16.98;3.97;;;4.70;99.90;;;;;;5072743;28;20040;-73
2022/02/02 06:32:50;;;;;;;12.90;4.07;;;4.70;99.90;;;;;;5090727;28;20473;-74
2022/02/02 06:35:28;;;;;;;11.82;2.90;;;4.70;99.90;;;;;;5077607;28;20082;-74
2022/02/02 06:38:00;;;;;;;9.85;3.28;;;4.70;99.90;;;;;;5094572;28;20058;-73
2022/02/02 06:40:37;;;;;;;9.05;2.90;;;4.70;99.90;;;;;;5076336;28;20040;-74
2022/02/02 06:43:07;;;;;;;8.82;2.78;;;4.60;99.90;;;;;;5095538;28;20040;-74
2022/02/02 06:45:41;;;;;;;9.10;3.15;;;4.60;99.90;;;;;;5092219;28;20048;-73
2022/02/02 06:48:08;;;;;;;15.88;2.97;;;4.60;99.90;;;;;;5076791;28;20044;-74
2022/02/02 06:50:44;;;;;;;10.85;2.78;;;4.50;99.90;;;;;;5094849;28;20036;-73
2022/02/02 06:53:36;;;;;;;22.55;4.25;;;4.40;99.90;;;;;;5102425;28;20053;-74
2022/02/02 07:02:23;;;;;;;14.02;3.80;;;4.30;99.90;;;;;;5094091;28;20040;-74
2022/02/02 07:11:18;;;;;;;10.63;3.28;;;4.30;99.90;;;;;;4996615;28;20078;-74
2022/02/02 07:14:00;;;;;;;8.20;2.95;;;4.30;99.90;;;;;;5021812;28;20049;-74
2022/02/02 07:30:41;;;;;;;7.35;2.63;;;4.40;99.90;;;;;;5092365;28;20506;-74
2022/02/02 07:32:41;;;;;;;11.75;3.25;;;4.40;99.90;;;;;;5087409;28;20506;-74
2022/02/02 07:35:21;;;;;;;11.68;3.17;;;4.40;99.90;;;;;;5073783;28;20613;-74
2022/02/02 07:38:03;;;;;;;11.88;2.83;;;4.40;99.90;;;;;;5091934;28;20036;-74
2022/02/02 07:40:41;;;;;;;11.65;3.58;;;4.40;99.90;;;;;;5086033;28;20406;-74
2022/02/02 07:43:31;;;;;;;15.73;3.00;;;4.40;99.90;;;;;;5073786;28;20072;-74
2022/02/02 07:46:02;;;;;;;11.85;3.47;;;4.40;99.90;;;;;;5060966;28;20055;-74
2022/02/02 07:48:39;;;;;;;10.98;4.32;;;4.40;99.90;;;;;;5074318;28;20036;-73
2022/02/02 07:51:14;;;;;;;10.95;3.45;;;4.40;99.90;;;;;;5073717;28;20047;-74
2022/02/02 07:53:52;;;;;;;12.50;2.20;;;4.50;99.90;;;;;;5091518;28;20036;-74
2022/02/02 07:56:26;;;;;;;7.93;2.65;;;4.60;99.90;;;;;;5087325;28;20032;-74
2022/02/02 07:59:13;;;;;;;13.98;3.70;;;4.60;99.90;;;;;;5074049;28;20048;-75
2022/02/02 08:01:42;;;;;;;15.20;5.10;;;4.60;99.90;;;;;;5067696;28;20052;-74
2022/02/02 08:04:12;;;;;;;19.52;4.97;;;4.60;99.90;;;;;;5091732;28;20078;-74
2022/02/02 08:06:48;;;;;;;10.98;3.13;;;4.70;99.90;;;;;;5091274;28;20051;-74
2022/02/02 08:09:24;;;;;;;14.25;2.55;;;4.60;99.90;;;;;;5073928;28;20135;-74
2022/02/02 08:11:54;;;;;;;11.45;2.45;;;4.60;99.90;;;;;;5090813;28;20040;-74
2022/02/02 08:14:33;;;;;;;14.13;2.35;;;4.60;99.90;;;;;;5073992;28;20135;-74
2022/02/02 08:17:05;;;;;;;11.70;2.60;;;4.60;99.90;;;;;;5074587;28;20067;-74
2022/02/02 08:19:40;;;;;;;9.43;2.58;;;4.50;99.90;;;;;;5091703;28;20430;-74
2022/02/02 08:22:11;;;;;;;10.73;2.30;;;4.50;99.90;;;;;;5053542;28;20053;-74
2022/02/02 08:24:45;;;;;;;15.45;2.10;;;4.40;99.90;;;;;;5054638;28;20466;-74
2022/02/02 08:27:20;;;;;;;8.50;2.15;;;4.50;99.90;;;;;;5042803;28;1140810;-74
2022/02/02 08:29:48;;;;;;;8.27;2.47;;;4.40;99.90;;;;;;5081034;28;20052;-74
2022/02/02 08:32:23;;;;;;;14.93;2.38;;;4.50;99.90;;;;;;5087259;28;20078;-74
2022/02/02 08:34:58;;;;;;;;;;;4.50;99.90;;;;;;5075760;28;20044;-74
2022/02/02 08:37:34;;;;;;;10.27;1.77;;;4.50;99.90;;;;;;5074661;28;20302;-74
2022/02/02 08:40:21;;;;;;;7.00;2.30;;;4.50;99.90;;;;;;5091378;28;20056;-74
2022/02/02 08:42:55;;;;;;;10.50;3.53;;;4.60;99.90;;;;;;5074130;28;20091;-73
2022/02/02 08:45:31;;;;;;;7.95;2.58;;;4.60;99.90;;;;;;5091667;28;20054;-73
2022/02/02 08:48:08;;;;;;;9.40;2.42;;;4.60;99.90;;;;;;5074408;28;20562;-73
2022/02/02 08:58:43;;;;;;;8.95;3.33;;;4.70;99.90;;;;;;5058850;28;20071;-74
2022/02/02 09:01:25;;;;;;;19.45;4.05;;;4.70;99.90;;;;;;5093225;28;20028;-74
2022/02/02 09:06:38;;;;;;;11.02;3.30;;;4.70;99.90;;;;;;5092528;28;20487;-74
2022/02/02 09:09:19;;;;;;;12.93;3.38;;;4.80;99.90;;;;;;5092098;28;20473;-74
2022/02/02 09:20:30;;;;;;;13.25;4.55;;;5.00;99.90;;;;;;5069552;28;20479;-73
2022/02/02 09:23:28;;;;;;;15.77;3.38;;;5.10;99.90;;;;;;5069403;28;20134;-74
2022/02/02 09:34:12;;;;;;;12.40;3.63;;;5.50;99.90;;;;;;5092008;28;20036;-74
2022/02/02 09:36:47;;;;;;;14.80;3.95;;;5.60;99.90;;;;;;5074317;28;20044;-74
2022/02/02 09:39:28;;;;;;;9.70;3.65;;;5.70;99.90;;;;;;5073217;28;20048;-74
2022/02/02 09:42:04;;;;;;;17.13;4.15;;;5.80;99.90;;;;;;5091116;28;20040;-74
2022/02/02 09:44:37;;;;;;;18.38;4.05;;;5.80;99.90;;;;;;5089885;28;20064;-73
2022/02/02 09:47:23;;;;;;;14.50;3.72;;;5.80;99.90;;;;;;5090110;28;20043;-74
2022/02/02 09:50:00;;;;;;;12.63;4.40;;;5.90;99.90;;;;;;5090537;28;20078;-74
2022/02/02 09:52:39;;;;;;;9.30;3.17;;;6.00;99.90;;;;;;5072706;28;20470;-74
2022/02/02 09:55:17;;;;;;;16.33;3.65;;;6.00;99.90;;;;;;5091453;28;20044;-74
2022/02/02 09:57:55;;;;;;;14.52;3.17;;;6.10;99.90;;;;;;5091130;28;20040;-74
2022/02/02 10:00:43;;;;;;;21.77;5.77;;;6.10;99.90;;;;;;5072445;28;20130;-74
2022/02/02 10:03:34;;;;;;;10.52;3.25;;;6.10;99.90;;;;;;5072550;28;20282;-74
2022/02/02 10:09:12;;;;;;;12.80;3.65;;;6.00;99.90;;;;;;5058491;28;20418;-74
2022/02/02 10:14:16;;;;;;;9.73;3.00;;;6.00;99.90;;;;;;5070491;28;20040;-74
2022/02/02 10:16:50;;;;;;;13.90;3.35;;;6.10;99.90;;;;;;5051249;28;20461;-74
2022/02/02 10:19:25;;;;;;;11.82;3.15;;;6.10;99.90;;;;;;5052713;28;20064;-74
2022/02/02 10:21:59;;;;;;;11.80;3.42;;;6.10;99.90;;;;;;5053398;28;20069;-74
2022/02/02 10:24:51;;;;;;;14.00;4.30;;;6.10;99.90;;;;;;5069087;28;20053;-74
2022/02/02 10:27:34;;;;;;;17.88;3.20;;;6.10;99.90;;;;;;5053923;28;20047;-74
2022/02/02 10:30:10;;;;;;;12.90;3.10;;;6.20;99.90;;;;;;5090752;28;20071;-74
2022/02/02 10:32:48;;;;;;;12.18;2.80;;;6.30;99.90;;;;;;5055732;28;20071;-73
2022/02/02 10:35:40;;;;;;;14.82;3.92;;;6.30;99.90;;;;;;5089226;28;20067;-74
2022/02/02 10:38:14;;;;;;;11.43;3.95;;;6.30;99.90;;;;;;5071715;28;20056;-74
2022/02/02 10:43:33;;;;;;;9.05;3.47;;;6.50;99.90;;;;;;5088113;28;20054;-74
2022/02/02 10:46:09;;;;;;;12.55;3.17;;;6.50;99.90;;;;;;5091050;28;20431;-74
2022/02/02 10:48:47;;;;;;;13.00;2.90;;;6.50;99.90;;;;;;5072626;28;20533;-74
2022/02/02 10:51:24;;;;;;;11.43;3.45;;;6.50;99.90;;;;;;5071061;28;20731;-73
2022/02/02 10:54:42;;;;;;;11.70;2.35;;;6.60;99.90;;;;;;5090249;28;20036;-74
2022/02/02 10:57:29;;;;;;;11.30;2.45;;;6.50;99.90;;;;;;5089765;28;20420;-74
2022/02/02 11:00:05;;;;;;;12.27;2.67;;;6.40;99.90;;;;;;5089279;28;20048;-74
2022/02/02 11:08:22;;;;;;;17.15;3.38;;;6.30;99.90;;;;;;5087418;28;20046;-74
2022/02/02 11:11:00;;;;;;;9.15;2.95;;;6.20;99.90;;;;;;5090022;28;20094;-74
2022/02/02 11:13:33;;;;;;;12.40;2.88;;;6.20;99.90;;;;;;5088702;28;20541;-74
2022/02/02 11:16:01;;;;;;;12.02;2.25;;;6.20;99.90;;;;;;5090136;28;20036;-74
2022/02/02 11:18:35;;;;;;;9.27;3.42;;;6.20;99.90;;;;;;5074848;28;20119;-73
2022/02/02 11:21:12;;;;;;;8.88;2.33;;;6.20;99.90;;;;;;5075258;28;20052;-73
2022/02/02 11:23:52;;;;;;;16.58;3.55;;;6.20;99.90;;;;;;5078189;28;20039;-74
2022/02/02 11:26:42;;;;;;;17.25;2.92;;;6.20;99.90;;;;;;5083723;28;20082;-74
2022/02/02 11:29:35;;;;;;;12.85;2.92;;;6.10;99.90;;;;;;5092310;28;20063;-74
2022/02/02 11:32:13;;;;;;;10.20;2.53;;;6.10;99.90;;;;;;5092148;28;20066;-73
2022/02/02 11:34:46;;;;;;;12.50;2.63;;;6.10;99.90;;;;;;5076269;28;20490;-74
2022/02/02 11:37:12;;;;;;;10.75;3.35;;;6.10;99.90;;;;;;5080910;28;20064;-74
2022/02/02 11:46:04;;;;;;;10.20;2.97;;;6.10;99.90;;;;;;4998509;28;20050;-74
2022/02/02 11:48:52;;;;;;;;;;;6.20;99.90;;;;;;5022253;28;20050;-74
2022/02/02 11:51:42;;;;;;;13.60;3.05;;;6.30;99.90;;;;;;5073099;28;19920;-74
2022/02/02 11:54:37;;;;;;;9.68;2.45;;;6.40;99.90;;;;;;5093077;28;20043;-74
2022/02/02 12:00:11;;;;;;;16.90;2.53;;;6.50;99.90;;;;;;5092316;28;20501;-74
2022/02/02 12:03:01;;;;;;;14.43;4.05;;;6.50;99.90;;;;;;5072677;28;20679;-74
2022/02/02 12:45:37;;;;;;;8.02;2.45;;;7.10;99.90;;;;;;5092244;28;20067;-74
2022/02/02 12:48:01;;;;;;;15.50;3.65;;;7.10;99.90;;;;;;5073257;28;20143;-73
2022/02/02 12:56:32;;;;;;;15.40;3.05;;;7.10;99.90;;;;;;5092080;28;20036;-74
2022/02/02 13:02:20;;;;;;;9.88;3.00;;;7.10;99.90;;;;;;5071830;28;20513;-74
2022/02/02 13:04:56;;;;;;;12.93;3.95;;;7.20;99.90;;;;;;5091368;28;20040;-74
2022/02/02 13:07:29;;;;;;;10.90;2.90;;;7.20;99.90;;;;;;5091382;28;20047;-74
2022/02/02 13:10:07;;;;;;;16.23;3.63;;;7.20;99.90;;;;;;5091532;28;20058;-74
2022/02/02 13:13:01;;;;;;;13.68;3.53;;;7.20;99.90;;;;;;5089663;28;20047;-74
2022/02/02 13:15:43;;;;;;;10.75;3.25;;;7.30;99.90;;;;;;5073358;28;20129;-75
2022/02/02 13:18:25;;;;;;;15.50;4.80;;;7.30;99.90;;;;;;5091368;28;20093;-74
2022/02/02 13:26:44;;;;;;;8.40;3.05;;;7.70;99.90;;;;;;5085257;28;20082;-74
2022/02/02 13:29:45;;;;;;;9.95;2.90;;;7.70;99.90;;;;;;5087952;28;20130;-74
2022/02/02 13:35:37;;;;;;;9.90;2.58;;;7.50;99.90;;;;;;5051617;28;20136;-74
2022/02/02 13:38:34;;;;;;;8.07;2.70;;;7.50;99.90;;;;;;5071626;28;20469;-74
2022/02/02 13:44:26;;;;;;;9.30;2.90;;;7.40;99.90;;;;;;5090859;28;20067;-73
2022/02/02 13:47:15;;;;;;;9.90;2.63;;;7.40;99.90;;;;;;5072637;28;20102;-74
2022/02/02 13:50:13;;;;;;;9.82;2.28;;;7.30;99.90;;;;;;5084946;28;20498;-73
2022/02/02 13:52:54;;;;;;;9.85;2.67;;;7.10;99.90;;;;;;5090418;28;20086;-74
2022/02/02 13:55:37;;;;;;;9.88;2.60;;;7.00;99.90;;;;;;5089704;28;20391;-74
2022/02/02 14:01:29;;;;;;;13.77;3.25;;;6.90;99.90;;;;;;5088838;28;20093;-74
2022/02/02 14:04:11;;;;;;;9.45;3.00;;;6.80;99.90;;;;;;5090347;28;20036;-74
2022/02/02 14:06:55;;;;;;;9.00;2.28;;;6.80;99.90;;;;;;5090962;28;20040;-74
2022/02/02 14:10:02;;;;;;;11.98;2.90;;;6.90;99.90;;;;;;5089680;28;20036;-74
2022/02/02 14:31:07;;;;;;;10.63;3.00;;;6.80;99.90;;;;;;5090707;28;20046;-74
2022/02/02 14:32:09;;;;;;;8.55;2.92;;;6.70;99.90;;;;;;5050315;28;20049;-74
2022/02/02 14:34:44;;;;;;;9.48;3.10;;;6.70;99.90;;;;;;5053065;28;20211;-74
2022/02/02 14:37:16;;;;;;;8.63;2.70;;;6.60;99.90;;;;;;5070274;28;20095;-74
2022/02/02 14:39:56;;;;;;;15.10;3.45;;;6.60;99.90;;;;;;5056426;28;20403;-74
2022/02/02 14:42:36;;;;;;;8.30;3.23;;;6.60;99.90;;;;;;5073189;28;20206;-74
2022/02/02 14:45:14;;;;;;;11.95;4.38;;;6.60;99.90;;;;;;5070211;28;20848;-74
2022/02/02 14:47:47;;;;;;;;;;;6.60;99.90;;;;;;5077522;28;20111;-74
2022/02/02 15:32:13;;;;;;;12.38;2.80;;;6.00;99.90;;;;;;5071815;28;20040;-74
2022/02/02 15:34:52;;;;;;;15.00;3.90;;;6.00;99.90;;;;;;5083844;28;20036;-74
2022/02/02 15:37:32;;;;;;;7.95;3.03;;;5.90;99.90;;;;;;5082124;28;20123;-74
2022/02/02 15:40:12;;;;;;;10.00;3.03;;;5.80;99.90;;;;;;5075432;28;20040;-74
2022/02/02 15:42:55;;;;;;;11.60;2.95;;;5.80;99.90;;;;;;5065702;28;20036;-74
2022/02/02 16:02:16;;;;;;;14.88;4.30;;;5.50;99.90;;;;;;5079403;28;20051;-73
2022/02/02 16:05:00;;;;;;;11.57;3.72;;;5.40;99.90;;;;;;5092071;28;20052;-74
2022/02/02 16:07:40;;;;;;;10.90;3.83;;;5.40;99.90;;;;;;5092486;28;20093;-74
2022/02/02 16:10:19;;;;;;;9.68;3.10;;;5.30;99.90;;;;;;5092211;28;20121;-73
2022/02/02 16:12:58;;;;;;;11.98;2.80;;;5.40;99.90;;;;;;5087930;28;20052;-73
2022/02/02 16:15:32;;;;;;;10.15;2.90;;;5.30;99.90;;;;;;5091987;28;20043;-73
2022/02/02 16:18:32;;;;;;;10.60;2.80;;;5.20;99.90;;;;;;5073611;28;20500;-73
2022/02/02 16:38:00;;;;;;;15.45;3.78;;;4.80;99.90;;;;;;5086390;28;20521;-73
2022/02/02 16:40:37;;;;;;;9.70;2.92;;;4.70;99.90;;;;;;5091692;28;20552;-74
2022/02/02 16:43:13;;;;;;;8.90;2.67;;;4.70;99.90;;;;;;5089396;28;20127;-73
2022/02/02 16:45:55;;;;;;;10.23;2.85;;;4.60;99.90;;;;;;5075490;28;20135;-73
2022/02/02 16:48:28;;;;;;;12.73;3.63;;;4.70;99.90;;;;;;5056923;28;20052;-73
2022/02/02 16:51:04;;;;;;;10.52;3.35;;;4.70;99.90;;;;;;5070311;28;20136;-73
2022/02/02 16:53:46;;;;;;;11.95;3.35;;;4.60;99.90;;;;;;5083416;28;20060;-73
2022/02/02 16:56:38;;;;;;;9.25;3.20;;;4.60;99.90;;;;;;5076595;28;20047;-73
2022/02/02 17:27:06;;;;;;;9.95;3.05;;;4.30;99.90;;;;;;5070876;28;20037;-73
2022/02/02 17:30:58;;;;;;;11.52;2.95;;;4.40;99.90;;;;;;5071165;28;20036;-73
2022/02/02 17:33:36;;;;;;;12.35;3.00;;;4.40;99.90;;;;;;5068804;28;20040;-74
2022/02/02 17:36:23;;;;;;;15.02;3.53;;;4.40;99.90;;;;;;5070956;28;20481;-73
2022/02/02 17:39:00;;;;;;;11.15;3.25;;;4.40;99.90;;;;;;5071067;28;20449;-73
2022/02/02 18:20:38;;;;;;;7.68;4.32;;;4.70;99.90;;;;;;5090554;28;20040;-74
2022/02/02 18:37:00;;;;;;;9.20;3.35;;;4.70;99.90;;;;;;5068954;28;20135;-74
2022/02/02 18:40:50;;;;;;;6.78;3.38;;;4.80;99.90;;;;;;5080540;28;20040;-73
2022/02/02 18:48:41;;;;;;;9.95;3.65;;;4.70;99.90;;;;;;4990582;28;20058;-74
2022/02/02 18:54:04;;;;;;;6.30;2.70;;;4.60;99.90;;;;;;4992315;28;20061;-74
2022/02/02 20:06:59;;;;;;;6.35;3.00;;;4.60;99.90;;;;;;5087161;28;20453;-74
2022/02/02 20:12:28;;;;;;;5.30;2.60;;;4.50;99.90;;;;;;5090754;28;20044;-75
2022/02/02 20:15:01;;;;;;;4.35;2.10;;;4.50;99.90;;;;;;5092524;28;20036;-74
2022/02/02 20:17:36;;;;;;;7.82;2.72;;;4.40;99.90;;;;;;5072504;28;20040;-74
2022/02/02 20:20:14;;;;;;;4.20;2.33;;;4.40;99.90;;;;;;5073480;28;20521;-74
2022/02/02 20:22:41;;;;;;;6.90;2.25;;;4.40;99.90;;;;;;5080712;28;20139;-73
2022/02/02 20:25:17;;;;;;;5.53;2.60;;;4.50;99.90;;;;;;5100746;28;20044;-74
2022/02/02 20:28:02;;;;;;;3.90;2.35;;;4.40;99.90;;;;;;5087304;28;20036;-75
2022/02/02 20:30:37;;;;;;;6.65;2.22;;;4.40;99.90;;;;;;5086275;28;20502;-74
2022/02/02 20:33:06;;;;;;;8.68;3.22;;;4.40;99.90;;;;;;5073892;28;20044;-75
2022/02/02 20:35:38;;;;;;;5.22;2.90;;;4.30;99.90;;;;;;5094997;28;20089;-74
2022/02/02 20:38:11;;;;;;;5.57;2.22;;;4.30;99.90;;;;;;5093193;28;20119;-74
2022/02/02 20:40:40;;;;;;;4.72;2.60;;;4.30;99.90;;;;;;5073591;28;20040;-74
2022/02/02 20:43:24;;;;;;;;;;;4.20;99.90;;;;;;5091257;28;20059;-74
2022/02/02 21:05:31;;;;;;;4.50;2.28;;;4.20;99.90;;;;;;5092196;28;20048;-74
2022/02/02 21:10:34;;;;;;;4.35;2.53;;;4.20;99.90;;;;;;5092059;28;20074;-74
2022/02/02 21:15:54;;;;;;;6.57;2.78;;;4.20;99.90;;;;;;5090722;28;20040;-74
2022/02/02 21:18:29;;;;;;;4.30;2.83;;;4.20;99.90;;;;;;5073794;28;20146;-74
2022/02/02 21:21:15;;;;;;;4.45;2.85;;;4.20;99.90;;;;;;5091808;28;20101;-75
2022/02/02 21:29:24;;;;;;;2.88;2.33;;;4.20;99.90;;;;;;5073517;28;20051;-74
2022/02/02 21:31:58;;;;;;;5.68;3.08;;;4.10;99.90;;;;;;5091570;28;20040;-75
2022/02/02 21:34:28;;;;;;;4.93;2.55;;;4.20;99.90;;;;;;5073751;28;20079;-74
2022/02/02 21:37:04;;;;;;;;;;;4.30;99.90;;;;;;5092124;28;20044;-74
2022/02/02 21:39:39;;;;;;;8.77;2.55;;;4.30;99.90;;;;;;5091533;28;19920;-74
2022/02/02 21:42:13;;;;;;;4.53;2.78;;;4.30;99.90;;;;;;5072564;28;20044;-74
2022/02/02 21:44:48;;;;;;;5.35;2.50;;;4.40;99.90;;;;;;5073898;28;20127;-74
2022/02/02 21:47:14;;;;;;;5.38;2.65;;;4.40;99.90;;;;;;5091444;28;20071;-74
2022/02/02 21:49:46;;;;;;;4.43;2.50;;;4.40;99.90;;;;;;5091667;28;20115;-73
2022/02/02 21:52:18;;;;;;;5.82;2.88;;;4.40;99.90;;;;;;5091284;28;20056;-74
2022/02/02 21:54:50;;;;;;;3.67;2.55;;;4.30;99.90;;;;;;5057487;28;20527;-74
2022/02/02 21:57:21;;;;;;;4.20;2.70;;;4.30;99.90;;;;;;5073107;28;20071;-75
2022/02/02 21:59:53;;;;;;;5.90;3.22;;;4.20;99.90;;;;;;5091352;28;20123;-74
2022/02/02 22:02:26;;;;;;;3.65;2.30;;;4.20;99.90;;;;;;5090271;28;20118;-74
2022/02/02 22:04:59;;;;;;;4.80;2.97;;;4.30;99.90;;;;;;5057425;28;20131;-74
2022/02/02 22:07:32;;;;;;;5.65;3.08;;;4.30;99.90;;;;;;5057048;28;20067;-74
2022/02/02 22:10:06;;;;;;;5.55;3.35;;;4.40;99.90;;;;;;5091308;28;20118;-75
2022/02/02 22:12:39;;;;;;;5.22;2.90;;;4.40;99.90;;;;;;5073569;28;20044;-74
2022/02/02 22:15:16;;;;;;;4.07;2.78;;;4.40;99.90;;;;;;5073935;28;20553;-74
2022/02/02 22:17:48;;;;;;;4.75;2.63;;;4.40;99.90;;;;;;5089994;28;20165;-74
2022/02/02 22:20:17;;;;;;;4.20;2.50;;;4.50;99.90;;;;;;5089475;28;20453;-75
2022/02/02 22:22:45;;;;;;;5.63;3.70;;;4.50;99.90;;;;;;5090385;28;20071;-74
2022/02/02 22:25:19;;;;;;;5.22;3.38;;;4.50;99.90;;;;;;5091079;28;20068;-74
2022/02/02 22:27:51;;;;;;;4.40;2.88;;;4.50;99.90;;;;;;5057194;28;20449;-74
2022/02/02 22:30:18;;;;;;;3.80;2.85;;;4.50;99.90;;;;;;5089520;28;20044;-74
2022/02/02 22:32:50;;;;;;;4.30;3.08;;;4.50;99.90;;;;;;5073269;28;20115;-74
2022/02/02 22:35:22;;;;;;;4.47;3.45;;;4.40;99.90;;;;;;5053996;28;20704;-74
2022/02/02 22:37:48;;;;;;;5.22;3.55;;;4.40;99.90;;;;;;5072719;28;20574;-75
2022/02/02 22:40:22;;;;;;;6.20;4.22;;;4.50;99.90;;;;;;5072734;28;20078;-75
2022/02/02 22:42:54;;;;;;;4.88;3.75;;;4.50;99.90;;;;;;5088790;28;20452;-74
2022/02/02 22:45:27;;;;;;;7.00;3.90;;;4.50;99.90;;;;;;5089564;28;20066;-74
2022/02/02 22:47:59;;;;;;;5.70;4.40;;;4.60;99.90;;;;;;5072853;28;20138;-75
2022/02/02 22:50:31;;;;;;;6.30;4.30;;;4.60;99.90;;;;;;5072716;28;20130;-74
2022/02/02 22:53:02;;;;;;;6.28;4.40;;;4.70;99.90;;;;;;5089083;28;20127;-74
2022/02/02 22:55:35;;;;;;;6.22;4.68;;;4.60;99.90;;;;;;5090673;28;20119;-74
2022/02/02 22:58:07;;;;;;;6.43;4.90;;;4.60;99.90;;;;;;5073609;28;20123;-74
2022/02/02 23:00:37;;;;;;;5.18;4.10;;;4.60;99.90;;;;;;5089177;28;20078;-74
2022/02/02 23:03:16;;;;;;;5.50;3.85;;;4.60;99.90;;;;;;5071851;28;20394;-74
2022/02/02 23:05:53;;;;;;;5.72;4.35;;;4.60;99.90;;;;;;5090603;28;20398;-74
2022/02/02 23:08:27;;;;;;;6.15;4.50;;;4.60;99.90;;;;;;5073510;28;20040;-74
2022/02/02 23:11:00;;;;;;;6.43;4.75;;;4.60;99.90;;;;;;5070896;28;20044;-75
2022/02/02 23:13:32;;;;;;;6.63;5.00;;;4.70;99.90;;;;;;5090234;28;20402;-75
2022/02/02 23:16:05;;;;;;;5.20;4.35;;;4.60;99.90;;;;;;5093064;28;20044;-74
2022/02/02 23:18:38;;;;;;;5.30;4.15;;;4.60;99.90;;;;;;5094282;28;20040;-74
2022/02/02 23:21:09;;;;;;;6.18;4.68;;;4.60;99.90;;;;;;5076028;28;20040;-74
2022/02/02 23:23:47;;;;;;;6.10;4.40;;;4.60;99.90;;;;;;5092210;28;20525;-74
2022/02/02 23:26:15;;;;;;;6.35;4.95;;;4.70;99.90;;;;;;5093241;28;20119;-74
2022/02/02 23:28:46;;;;;;;7.40;4.70;;;4.70;99.90;;;;;;5090299;28;20409;-74
2022/02/02 23:31:18;;;;;;;6.15;4.88;;;4.60;99.90;;;;;;5092505;28;20047;-74
2022/02/02 23:33:50;;;;;;;5.70;4.35;;;4.60;99.90;;;;;;5059649;28;20044;-74
2022/02/02 23:36:22;;;;;;;6.60;4.63;;;4.70;99.90;;;;;;5094073;28;20493;-74
2022/02/02 23:38:49;;;;;;;6.28;4.63;;;4.70;99.90;;;;;;5075932;28;20039;-74
2022/02/02 23:43:42;;;;;;;6.03;5.00;;;4.70;99.90;;;;;;5093115;28;20039;-74
2022/02/02 23:46:18;;;;;;;6.15;5.25;;;4.70;99.90;;;;;;5093970;28;20050;-74
2022/02/02 23:49:07;;;;;;;5.90;4.72;;;4.70;99.90;;;;;;5076786;28;20040;-74
2022/02/02 23:51:39;;;;;;;6.35;4.57;;;4.70;99.90;;;;;;5075633;28;20048;-74
2022/02/02 23:54:11;;;;;;;5.32;4.25;;;4.70;99.90;;;;;;5059385;28;20044;-74
2022/02/02 23:56:58;;;;;;;6.55;4.85;;;4.70;99.90;;;;;;5092509;28;20130;-75
2022/02/02 23:59:34;;;;;;;5.10;4.38;;;4.70;99.90;;;;;;5092364;28;20044;-74
